Time;durP1;ratioP1;P1;durP2;ratioP2;P2;SDS_P1;SDS_P2;PMS_P1;PMS_P2;Temp;Humidity;BMP_temperature;BMP_pressure;BME280_temperature;BME280_humidity;BME280_pressure;Samples;Min_cycle;Max_cycle;Signal;HPM_P1;HPM_P2
2023/10/31 00:01:34;;;;;;;9.27;6.95;;;11.90;99.90;;;;;;5036622;28;20041;-73
2023/10/31 00:04:00;;;;;;;11.20;6.78;;;11.90;99.90;;;;;;5052461;28;20045;-73
2023/10/31 00:06:26;;;;;;;8.15;5.65;;;11.90;99.90;;;;;;5033618;28;20037;-72
2023/10/31 00:08:51;;;;;;;8.90;5.38;;;11.90;99.90;;;;;;5031407;28;20164;-74
2023/10/31 00:11:17;;;;;;;7.78;4.38;;;11.90;99.90;;;;;;5030911;28;20037;-74
2023/10/31 00:13:42;;;;;;;6.50;3.85;;;11.90;99.90;;;;;;5030645;28;20417;-74
2023/10/31 00:16:08;;;;;;;4.65;3.58;;;11.80;99.90;;;;;;5030763;28;20067;-73
2023/10/31 00:18:33;;;;;;;5.95;3.10;;;11.80;99.90;;;;;;5032615;28;20033;-74
2023/10/31 00:20:59;;;;;;;4.10;3.05;;;11.80;99.90;;;;;;5033039;28;20047;-73
2023/10/31 00:23:24;;;;;;;4.53;2.55;;;11.80;99.90;;;;;;5040041;28;20122;-74
2023/10/31 00:25:50;;;;;;;7.53;2.85;;;11.80;99.90;;;;;;5032667;28;20084;-72
2023/10/31 00:28:15;;;;;;;6.13;2.55;;;11.80;99.90;;;;;;5032543;28;20056;-73
2023/10/31 00:30:41;;;;;;;2.95;1.80;;;11.80;99.90;;;;;;5032941;28;20048;-73
2023/10/31 00:33:06;;;;;;;3.90;1.77;;;11.80;99.90;;;;;;5031047;28;20033;-73
2023/10/31 00:35:32;;;;;;;3.70;1.50;;;11.70;99.90;;;;;;5031005;28;20057;-74
2023/10/31 00:37:58;;;;;;;4.00;1.95;;;11.70;99.90;;;;;;5031829;28;20120;-73
2023/10/31 00:40:23;;;;;;;4.20;1.60;;;12.30;99.90;;;;;;5032076;28;20034;-73
2023/10/31 00:42:49;;;;;;;7.28;1.88;;;11.70;99.90;;;;;;5036481;28;20406;-74
2023/10/31 00:45:14;;;;;;;3.25;1.73;;;11.70;99.90;;;;;;5040911;28;20579;-73
2023/10/31 00:47:40;;;;;;;1.63;1.20;;;11.70;99.90;;;;;;5032120;28;20465;-74
2023/10/31 00:50:07;;;;;;;4.53;1.00;;;11.60;99.90;;;;;;5031159;28;20041;-74
2023/10/31 00:52:33;;;;;;;1.48;1.13;;;11.60;99.90;;;;;;5018248;28;20052;-72
2023/10/31 00:54:58;;;;;;;3.15;1.20;;;11.60;99.90;;;;;;5013712;28;20045;-73
2023/10/31 00:57:24;;;;;;;3.30;1.02;;;11.60;99.90;;;;;;5031815;28;20048;-73
2023/10/31 00:59:50;;;;;;;2.90;0.90;;;11.40;99.90;;;;;;5031892;28;20045;-73
2023/10/31 01:02:15;;;;;;;3.35;0.90;;;11.50;99.90;;;;;;5030877;28;20099;-74
2023/10/31 01:04:41;;;;;;;2.30;0.88;;;11.40;99.90;;;;;;5032731;28;20047;-72
2023/10/31 01:07:06;;;;;;;3.60;0.85;;;11.40;99.90;;;;;;5030718;28;20037;-73
2023/10/31 01:09:32;;;;;;;2.25;0.80;;;11.40;99.90;;;;;;5028027;28;20064;-73
2023/10/31 01:11:57;;;;;;;1.60;0.60;;;11.30;99.90;;;;;;5031020;28;20402;-73
2023/10/31 01:14:23;;;;;;;1.88;0.50;;;11.30;99.90;;;;;;5039344;28;20072;-73
2023/10/31 01:16:49;;;;;;;3.22;0.80;;;11.20;99.90;;;;;;5036013;28;20042;-73
2023/10/31 01:19:14;;;;;;;1.83;0.80;;;11.40;99.90;;;;;;5031099;28;20041;-73
2023/10/31 01:21:40;;;;;;;5.78;1.17;;;11.10;99.90;;;;;;5031290;28;20379;-72
2023/10/31 01:24:06;;;;;;;3.47;0.90;;;11.00;99.90;;;;;;5027984;28;20116;-73
2023/10/31 01:26:31;;;;;;;1.95;0.73;;;11.00;99.90;;;;;;5038137;28;20490;-73
2023/10/31 01:28:58;;;;;;;1.73;0.70;;;11.00;99.90;;;;;;5030636;28;20037;-73
2023/10/31 01:31:23;;;;;;;4.53;0.90;;;11.00;99.90;;;;;;5030929;28;20073;-73
2023/10/31 01:33:49;;;;;;;2.00;0.90;;;10.90;99.90;;;;;;5037156;28;20083;-73
2023/10/31 01:36:14;;;;;;;4.22;1.10;;;10.90;99.90;;;;;;5034182;28;20077;-71
2023/10/31 01:38:40;;;;;;;3.83;0.98;;;10.90;99.90;;;;;;5030323;28;20045;-72
2023/10/31 01:41:06;;;;;;;2.92;0.70;;;10.90;99.90;;;;;;5028372;28;20033;-72
2023/10/31 01:43:36;;;;;;;4.10;0.90;;;10.90;99.90;;;;;;5025424;28;20034;-73
2023/10/31 01:46:03;;;;;;;5.18;0.90;;;10.90;99.90;;;;;;5039101;28;20076;-73
2023/10/31 01:48:33;;;;;;;2.22;0.95;;;10.80;99.90;;;;;;5024108;28;22350;-73
2023/10/31 01:51:00;;;;;;;1.08;0.95;;;10.80;99.90;;;;;;5027836;28;20030;-74
2023/10/31 01:53:26;;;;;;;6.50;1.90;;;10.80;99.90;;;;;;5038389;28;20043;-73
2023/10/31 01:55:55;;;;;;;6.38;1.73;;;10.80;99.90;;;;;;5029282;28;20616;-73
2023/10/31 01:58:25;;;;;;;6.18;1.50;;;10.80;99.90;;;;;;5029712;28;20489;-71
2023/10/31 02:00:51;;;;;;;4.60;1.60;;;10.80;99.90;;;;;;5025501;28;20060;-72
2023/10/31 02:03:18;;;;;;;5.55;1.42;;;10.70;99.90;;;;;;5028785;28;20521;-73
2023/10/31 02:05:43;;;;;;;6.22;1.70;;;10.70;99.90;;;;;;5024854;28;20766;-73
2023/10/31 02:08:09;;;;;;;6.00;1.10;;;10.70;99.90;;;;;;5029953;28;20135;-73
2023/10/31 02:10:35;;;;;;;5.28;1.48;;;10.70;99.90;;;;;;5031266;28;20729;-73
2023/10/31 02:13:19;;;;;;;5.30;1.20;;;10.70;99.90;;;;;;5034045;28;20537;-73
2023/10/31 02:15:45;;;;;;;4.70;1.13;;;10.70;99.90;;;;;;5030703;28;20493;-73
2023/10/31 02:18:11;;;;;;;6.13;1.42;;;10.60;99.90;;;;;;5024001;28;20044;-73
2023/10/31 02:20:37;;;;;;;7.45;1.50;;;10.60;99.90;;;;;;5030299;28;20481;-73
2023/10/31 02:23:03;;;;;;;3.60;1.30;;;10.60;99.90;;;;;;5027316;28;20048;-73
2023/10/31 02:25:30;;;;;;;5.05;1.50;;;10.60;99.90;;;;;;5028105;28;20055;-73
2023/10/31 02:27:56;;;;;;;6.90;1.25;;;10.60;99.90;;;;;;5027052;28;20038;-72
2023/10/31 02:30:22;;;;;;;4.00;2.00;;;10.60;99.90;;;;;;5021254;28;20045;-73
2023/10/31 02:32:47;;;;;;;9.02;2.55;;;10.60;99.90;;;;;;5035626;28;20045;-74
2023/10/31 02:35:15;;;;;;;6.18;2.78;;;10.60;99.90;;;;;;5033548;28;20080;-73
2023/10/31 02:37:41;;;;;;;6.05;2.30;;;10.50;99.90;;;;;;5037643;28;20029;-73
2023/10/31 02:40:07;;;;;;;5.35;2.05;;;10.50;99.90;;;;;;5033433;28;20075;-73
2023/10/31 02:42:33;;;;;;;6.55;2.30;;;10.60;99.90;;;;;;5018789;28;20041;-73
2023/10/31 02:44:59;;;;;;;8.90;1.90;;;10.60;99.90;;;;;;5035827;28;20049;-73
2023/10/31 02:47:24;;;;;;;6.40;2.33;;;10.50;99.90;;;;;;5036543;28;20168;-72
2023/10/31 02:49:50;;;;;;;8.00;2.20;;;10.50;99.90;;;;;;5028984;28;20045;-73
2023/10/31 02:52:15;;;;;;;8.40;1.80;;;10.50;99.90;;;;;;5045771;28;20041;-73
2023/10/31 02:54:41;;;;;;;7.20;2.08;;;10.50;99.90;;;;;;5044844;28;20053;-73
2023/10/31 02:57:07;;;;;;;9.27;2.10;;;10.50;99.90;;;;;;5032401;28;20068;-73
2023/10/31 02:59:32;;;;;;;7.07;2.33;;;10.50;99.90;;;;;;5033733;28;20046;-73
2023/10/31 03:01:58;;;;;;;7.55;2.50;;;10.50;99.90;;;;;;5034624;28;20413;-73
2023/10/31 03:04:24;;;;;;;9.52;2.40;;;10.50;99.90;;;;;;5036748;28;20037;-73
2023/10/31 03:06:49;;;;;;;8.68;2.50;;;10.50;99.90;;;;;;5035725;28;20038;-73
2023/10/31 03:09:15;;;;;;;6.22;2.67;;;10.50;99.90;;;;;;5040541;28;20084;-73
2023/10/31 03:11:41;;;;;;;9.70;2.75;;;10.50;99.90;;;;;;5034189;28;20397;-73
2023/10/31 03:14:06;;;;;;;10.23;2.83;;;10.50;99.90;;;;;;5046114;28;20606;-73
2023/10/31 03:16:32;;;;;;;6.57;2.80;;;10.50;99.90;;;;;;5038470;28;20120;-73
2023/10/31 03:18:58;;;;;;;7.80;2.53;;;10.50;99.90;;;;;;5031175;28;20504;-73
2023/10/31 03:21:24;;;;;;;6.25;2.40;;;10.50;99.90;;;;;;5028249;28;20437;-72
2023/10/31 03:23:50;;;;;;;8.30;2.80;;;10.50;99.90;;;;;;5035499;28;20033;-73
2023/10/31 03:26:16;;;;;;;8.02;3.10;;;11.00;99.90;;;;;;5019317;28;20041;-73
2023/10/31 03:28:44;;;;;;;8.02;2.78;;;10.50;99.90;;;;;;5035646;28;20379;-73
2023/10/31 03:31:10;;;;;;;12.18;3.22;;;10.60;99.90;;;;;;5035343;28;20102;-73
2023/10/31 03:33:36;;;;;;;9.00;3.47;;;10.50;99.90;;;;;;5044074;28;20037;-73
2023/10/31 03:36:01;;;;;;;5.15;2.70;;;10.50;99.90;;;;;;5044542;28;20040;-73
2023/10/31 03:38:27;;;;;;;6.07;2.72;;;10.50;99.90;;;;;;5034673;28;20048;-73
2023/10/31 03:40:53;;;;;;;7.47;2.20;;;10.50;99.90;;;;;;5035253;28;20171;-73
2023/10/31 03:43:19;;;;;;;5.47;2.42;;;10.50;99.90;;;;;;5036415;28;20033;-73
2023/10/31 03:45:49;;;;;;;8.20;2.65;;;10.50;99.90;;;;;;5034455;28;20052;-73
2023/10/31 03:48:16;;;;;;;7.13;2.47;;;10.50;99.90;;;;;;5032913;28;20193;-73
2023/10/31 03:50:42;;;;;;;4.05;1.73;;;10.50;99.90;;;;;;5031510;28;20045;-73
2023/10/31 03:53:08;;;;;;;4.55;2.05;;;10.50;99.90;;;;;;5040259;28;20412;-73
2023/10/31 03:55:34;;;;;;;6.80;1.70;;;10.50;99.90;;;;;;5035336;28;20049;-73
2023/10/31 03:57:59;;;;;;;4.88;1.80;;;10.50;99.90;;;;;;5032723;28;20048;-73
2023/10/31 04:00:25;;;;;;;5.35;1.63;;;10.50;99.90;;;;;;5031690;28;20080;-73
2023/10/31 04:02:50;;;;;;;6.28;2.10;;;10.40;99.90;;;;;;5033442;28;20083;-73
2023/10/31 04:05:16;;;;;;;5.13;1.67;;;10.40;99.90;;;;;;5031770;28;20115;-74
2023/10/31 04:07:43;;;;;;;6.35;1.98;;;10.40;99.90;;;;;;5028237;28;20034;-73
2023/10/31 04:10:09;;;;;;;9.90;3.15;;;10.40;99.90;;;;;;5028521;28;20382;-73
2023/10/31 04:12:35;;;;;;;5.95;1.90;;;10.40;99.90;;;;;;5028913;28;20096;-73
2023/10/31 04:15:00;;;;;;;4.63;2.08;;;10.40;99.90;;;;;;5032900;28;20037;-73
2023/10/31 04:17:26;;;;;;;6.93;2.10;;;10.40;99.90;;;;;;5014361;28;20029;-73
2023/10/31 04:19:52;;;;;;;5.63;2.20;;;10.40;99.90;;;;;;5027944;28;20108;-73
2023/10/31 04:22:17;;;;;;;5.15;1.90;;;10.40;99.90;;;;;;5031238;28;20041;-73
2023/10/31 04:24:43;;;;;;;7.93;2.85;;;10.40;99.90;;;;;;5015909;28;20410;-73
2023/10/31 04:27:09;;;;;;;9.15;2.40;;;10.40;99.90;;;;;;5041672;28;20548;-73
2023/10/31 04:29:34;;;;;;;8.63;2.42;;;10.40;99.90;;;;;;5028934;28;20175;-73
2023/10/31 04:32:00;;;;;;;9.50;2.70;;;10.40;99.90;;;;;;5029966;28;20045;-73
2023/10/31 04:34:25;;;;;;;6.20;2.35;;;10.40;99.90;;;;;;5032042;28;20040;-73
2023/10/31 04:36:51;;;;;;;8.70;2.78;;;10.40;99.90;;;;;;5030700;28;20037;-73
2023/10/31 04:39:16;;;;;;;8.55;2.72;;;10.40;99.90;;;;;;5031176;28;20120;-72
2023/10/31 04:41:42;;;;;;;9.13;2.50;;;10.40;99.90;;;;;;5031689;28;20045;-73
2023/10/31 04:44:07;;;;;;;8.45;2.50;;;10.40;99.90;;;;;;5030864;28;20463;-74
2023/10/31 04:46:33;;;;;;;9.95;2.47;;;10.40;99.90;;;;;;5032567;28;20049;-72
2023/10/31 04:48:59;;;;;;;7.95;2.80;;;10.40;99.90;;;;;;5028581;28;20113;-73
2023/10/31 04:51:24;;;;;;;5.95;2.10;;;10.40;99.90;;;;;;5032929;28;20037;-73
2023/10/31 04:53:50;;;;;;;4.97;1.90;;;10.40;99.90;;;;;;5047041;28;20387;-73
2023/10/31 04:56:17;;;;;;;4.05;2.00;;;10.40;99.90;;;;;;5034488;28;20049;-72
2023/10/31 04:58:42;;;;;;;5.38;2.03;;;10.40;99.90;;;;;;5034931;28;20048;-73
2023/10/31 05:01:12;;;;;;;7.07;2.33;;;10.40;99.90;;;;;;5029910;28;20112;-72
2023/10/31 05:03:38;;;;;;;9.13;1.90;;;10.30;99.90;;;;;;5031089;28;20125;-73
2023/10/31 05:06:04;;;;;;;6.43;1.70;;;10.40;99.90;;;;;;5030251;28;20545;-73
2023/10/31 05:08:30;;;;;;;10.40;2.10;;;10.40;99.90;;;;;;5031194;28;20049;-72
2023/10/31 05:10:57;;;;;;;5.65;1.90;;;10.30;99.90;;;;;;5014610;28;20106;-72
2023/10/31 05:13:22;;;;;;;5.47;1.85;;;10.30;99.90;;;;;;5023444;28;20067;-74
2023/10/31 05:15:48;;;;;;;8.07;1.92;;;10.30;99.90;;;;;;5037569;28;20506;-73
2023/10/31 05:18:14;;;;;;;8.48;2.03;;;10.30;99.90;;;;;;5034201;28;20034;-73
2023/10/31 05:20:39;;;;;;;6.75;2.08;;;10.30;99.90;;;;;;5030426;28;20079;-72
2023/10/31 05:23:05;;;;;;;5.95;2.00;;;10.30;99.90;;;;;;5031207;28;20033;-72
2023/10/31 05:25:31;;;;;;;6.25;1.90;;;10.30;99.90;;;;;;5031599;28;20099;-72
2023/10/31 05:27:56;;;;;;;4.70;1.60;;;10.30;99.90;;;;;;5029651;28;20037;-75
2023/10/31 05:30:22;;;;;;;4.90;1.95;;;10.30;99.90;;;;;;5024972;28;20396;-73
2023/10/31 05:32:49;;;;;;;4.65;1.48;;;10.30;99.90;;;;;;5031371;28;20085;-72
2023/10/31 05:35:15;;;;;;;4.93;1.73;;;10.30;99.90;;;;;;5032502;28;20037;-73
2023/10/31 05:37:40;;;;;;;6.22;2.00;;;10.30;99.90;;;;;;5036236;28;20520;-73
2023/10/31 05:40:06;;;;;;;6.28;1.80;;;10.30;99.90;;;;;;5031488;28;20494;-73
2023/10/31 05:42:32;;;;;;;5.30;1.95;;;10.30;99.90;;;;;;5029979;28;20086;-73
2023/10/31 05:44:57;;;;;;;7.03;1.80;;;10.30;99.90;;;;;;5029985;28;20048;-73
2023/10/31 05:47:23;;;;;;;5.55;1.67;;;10.30;99.90;;;;;;5031408;28;20045;-73
2023/10/31 05:49:49;;;;;;;6.55;2.30;;;10.30;99.90;;;;;;5029072;28;20041;-73
2023/10/31 05:52:14;;;;;;;5.82;2.65;;;10.30;99.90;;;;;;5027919;28;20156;-73
2023/10/31 05:54:40;;;;;;;6.13;2.20;;;10.30;99.90;;;;;;5031737;28;20464;-72
2023/10/31 05:57:05;;;;;;;9.32;2.70;;;10.30;99.90;;;;;;5052130;22;20044;-72
2023/10/31 05:59:32;;;;;;;6.00;2.25;;;10.30;99.90;;;;;;5026542;28;20049;-72
2023/10/31 06:01:58;;;;;;;5.75;2.40;;;10.20;99.90;;;;;;5027464;28;20506;-72
2023/10/31 06:04:24;;;;;;;5.72;2.40;;;10.40;99.90;;;;;;5026811;28;20039;-73
2023/10/31 06:06:50;;;;;;;5.07;2.08;;;10.30;99.90;;;;;;5038629;28;20045;-72
2023/10/31 06:09:16;;;;;;;5.13;2.00;;;10.20;99.90;;;;;;5045773;28;20041;-72
2023/10/31 06:11:42;;;;;;;5.63;2.00;;;10.20;99.90;;;;;;5038992;28;20489;-72
2023/10/31 06:14:09;;;;;;;4.50;2.03;;;10.20;99.90;;;;;;5047262;28;20430;-72
2023/10/31 06:16:41;;;;;;;4.05;2.00;;;10.20;99.90;;;;;;5048928;28;20078;-72
2023/10/31 06:19:06;;;;;;;8.07;1.90;;;10.20;99.90;;;;;;5036709;28;20482;-72
2023/10/31 06:21:32;;;;;;;7.00;1.60;;;10.20;99.90;;;;;;5050140;28;20086;-72
2023/10/31 06:23:57;;;;;;;4.10;1.70;;;10.20;99.90;;;;;;5044320;28;20182;-72
2023/10/31 06:26:23;;;;;;;4.50;1.75;;;10.20;99.90;;;;;;5049449;28;20064;-73
2023/10/31 06:28:48;;;;;;;5.15;1.50;;;10.20;99.90;;;;;;5048360;28;20041;-72
2023/10/31 06:31:14;;;;;;;3.80;1.40;;;10.10;99.90;;;;;;5049253;28;20048;-73
2023/10/31 06:33:39;;;;;;;4.03;1.60;;;10.20;99.90;;;;;;5044471;28;20037;-73
2023/10/31 06:36:06;;;;;;;7.18;2.03;;;10.20;99.90;;;;;;5038270;28;20041;-72
2023/10/31 06:38:32;;;;;;;3.80;1.70;;;10.20;99.90;;;;;;5045830;28;20394;-72
2023/10/31 06:40:58;;;;;;;4.40;1.73;;;10.20;99.90;;;;;;5042948;28;20032;-73
2023/10/31 06:43:23;;;;;;;3.95;1.92;;;10.20;99.90;;;;;;5049073;28;20398;-72
2023/10/31 06:45:49;;;;;;;5.85;2.15;;;10.20;99.90;;;;;;5041721;28;20072;-73
2023/10/31 06:48:14;;;;;;;6.75;2.10;;;10.20;99.90;;;;;;5045685;28;20128;-72
2023/10/31 06:50:40;;;;;;;3.92;2.00;;;10.20;99.90;;;;;;5050758;28;20135;-73
2023/10/31 06:53:05;;;;;;;4.05;1.92;;;10.20;99.90;;;;;;5036091;28;20095;-72
2023/10/31 06:55:31;;;;;;;5.85;2.00;;;10.20;99.90;;;;;;5044955;28;20083;-72
2023/10/31 06:57:57;;;;;;;5.93;2.10;;;10.20;99.90;;;;;;5045986;28;20041;-73
2023/10/31 07:00:22;;;;;;;4.53;2.05;;;10.20;99.90;;;;;;5037386;28;20478;-73
2023/10/31 07:02:48;;;;;;;6.28;2.20;;;10.30;99.90;;;;;;5053071;28;20131;-73
2023/10/31 07:05:15;;;;;;;5.55;2.30;;;10.30;99.90;;;;;;5044212;28;20095;-73
2023/10/31 07:07:40;;;;;;;10.73;2.67;;;10.20;99.90;;;;;;5045150;28;20105;-73
2023/10/31 07:10:06;;;;;;;5.68;2.25;;;10.30;99.90;;;;;;5046731;28;20024;-74
2023/10/31 07:12:32;;;;;;;8.10;2.40;;;10.30;99.90;;;;;;5042164;28;20362;-73
2023/10/31 07:14:58;;;;;;;7.47;2.80;;;10.30;99.90;;;;;;5043257;28;20093;-73
2023/10/31 07:17:24;;;;;;;3.58;2.20;;;10.30;99.90;;;;;;5045959;28;20504;-73
2023/10/31 07:19:50;;;;;;;8.23;2.20;;;10.80;99.90;;;;;;5049303;28;20041;-73
2023/10/31 07:22:16;;;;;;;7.10;2.50;;;10.30;99.90;;;;;;5044794;28;20063;-73
2023/10/31 07:24:42;;;;;;;4.43;2.00;;;10.40;99.90;;;;;;5046732;28;20393;-73
2023/10/31 07:27:08;;;;;;;6.95;2.15;;;10.40;99.90;;;;;;5049214;28;20037;-73
2023/10/31 07:29:34;;;;;;;6.63;1.98;;;10.40;99.90;;;;;;5049218;28;20465;-73
2023/10/31 07:32:00;;;;;;;9.88;2.28;;;10.40;99.90;;;;;;5060425;28;20102;-74
2023/10/31 07:34:25;;;;;;;5.75;1.98;;;10.50;99.90;;;;;;5050971;28;20040;-73
2023/10/31 07:36:51;;;;;;;7.05;2.30;;;10.40;99.90;;;;;;5048140;28;20047;-73
2023/10/31 07:39:17;;;;;;;4.82;2.40;;;10.50;99.90;;;;;;5055306;28;20040;-73
2023/10/31 07:41:42;;;;;;;7.97;2.70;;;10.50;99.90;;;;;;5052294;28;20496;-73
2023/10/31 07:44:08;;;;;;;5.55;2.50;;;10.50;99.90;;;;;;5042685;28;20045;-73
2023/10/31 07:46:33;;;;;;;10.05;2.67;;;10.50;99.90;;;;;;5045662;28;20041;-72
2023/10/31 07:48:59;;;;;;;5.88;2.60;;;10.60;99.90;;;;;;5045962;28;20049;-72
2023/10/31 07:51:25;;;;;;;5.43;2.75;;;10.60;99.90;;;;;;5052536;28;20404;-72
2023/10/31 07:53:51;;;;;;;6.80;2.55;;;10.60;99.90;;;;;;5032519;28;20040;-72
2023/10/31 07:56:22;;;;;;;6.07;2.33;;;10.70;99.90;;;;;;5031972;28;20029;-73
2023/10/31 07:58:49;;;;;;;5.75;2.75;;;10.70;99.90;;;;;;5043839;28;20032;-72
2023/10/31 08:01:19;;;;;;;8.38;2.70;;;10.70;99.90;;;;;;5053181;28;20371;-72
2023/10/31 08:03:47;;;;;;;6.10;2.45;;;10.90;99.90;;;;;;5033533;28;20378;-72
2023/10/31 08:06:13;;;;;;;6.00;2.75;;;10.90;99.90;;;;;;5058127;28;20045;-73
2023/10/31 08:08:39;;;;;;;6.05;2.65;;;10.90;99.90;;;;;;5054499;28;20555;-72
2023/10/31 08:11:09;;;;;;;49.55;6.63;;;11.00;99.90;;;;;;5046982;28;20473;-72
2023/10/31 08:13:39;;;;;;;16.48;3.17;;;11.00;99.90;;;;;;5049207;28;20045;-72
2023/10/31 08:16:06;;;;;;;5.78;2.63;;;11.00;99.90;;;;;;5051417;28;20116;-72
2023/10/31 08:18:32;;;;;;;4.93;2.20;;;11.10;99.90;;;;;;5047379;28;20121;-72
2023/10/31 08:20:58;;;;;;;5.80;2.20;;;11.10;99.90;;;;;;5049325;28;20541;-72
2023/10/31 08:23:24;;;;;;;7.00;2.13;;;11.10;99.90;;;;;;5049616;28;20536;-73
2023/10/31 08:25:54;;;;;;;7.55;2.13;;;11.10;99.90;;;;;;5026727;28;20120;-72
2023/10/31 08:28:20;;;;;;;9.52;1.80;;;11.10;99.90;;;;;;5062250;28;20435;-72
2023/10/31 08:30:46;;;;;;;7.38;1.90;;;11.10;99.90;;;;;;5056702;28;20033;-72
2023/10/31 08:33:12;;;;;;;10.98;1.90;;;11.20;99.90;;;;;;5047074;28;20030;-72
2023/10/31 08:35:38;;;;;;;8.27;1.88;;;11.20;99.90;;;;;;5049050;28;20036;-73
2023/10/31 08:38:04;;;;;;;7.47;2.20;;;11.10;99.90;;;;;;5055265;28;20034;-72
2023/10/31 08:40:30;;;;;;;7.28;2.03;;;11.20;99.90;;;;;;5043140;28;20083;-72
2023/10/31 08:42:55;;;;;;;4.95;2.08;;;11.20;99.90;;;;;;5053967;28;20064;-73
2023/10/31 08:45:21;;;;;;;10.15;2.53;;;11.20;99.90;;;;;;5055020;28;20040;-73
2023/10/31 08:47:47;;;;;;;6.20;2.30;;;11.20;99.90;;;;;;5050432;28;20057;-72
2023/10/31 08:50:13;;;;;;;7.53;2.33;;;11.30;99.90;;;;;;5055561;28;20246;-72
2023/10/31 08:52:40;;;;;;;5.57;2.30;;;11.30;99.90;;;;;;5030987;28;20386;-73
2023/10/31 08:55:06;;;;;;;5.05;2.60;;;11.30;99.90;;;;;;5057216;28;20048;-74
2023/10/31 08:57:33;;;;;;;10.13;2.53;;;11.40;99.90;;;;;;5046472;28;20048;-73
2023/10/31 08:59:59;;;;;;;8.07;2.20;;;11.40;99.90;;;;;;5042965;28;20037;-72
2023/10/31 09:02:26;;;;;;;5.82;2.30;;;11.40;99.90;;;;;;5034313;28;20116;-72
2023/10/31 09:04:51;;;;;;;5.97;1.83;;;11.40;99.90;;;;;;5051335;28;20033;-73
2023/10/31 09:07:17;;;;;;;8.73;1.75;;;11.40;99.90;;;;;;5032301;28;20103;-72
2023/10/31 09:09:43;;;;;;;5.43;1.70;;;11.40;99.90;;;;;;5052530;28;20032;-73
2023/10/31 09:12:09;;;;;;;7.22;2.10;;;11.40;99.90;;;;;;5045853;28;20049;-73
2023/10/31 09:14:35;;;;;;;4.22;1.77;;;11.50;99.90;;;;;;5050091;28;20048;-73
2023/10/31 09:17:01;;;;;;;4.40;1.80;;;11.60;99.90;;;;;;5045866;28;20067;-73
2023/10/31 09:19:27;;;;;;;5.57;1.67;;;11.60;99.90;;;;;;5042605;28;20053;-72
2023/10/31 09:21:52;;;;;;;7.57;1.73;;;11.70;99.90;;;;;;5042217;28;20501;-74
2023/10/31 09:24:18;;;;;;;6.32;1.38;;;11.70;99.90;;;;;;5047221;28;20035;-73
2023/10/31 09:26:43;;;;;;;8.07;1.42;;;11.80;99.90;;;;;;5044421;28;20037;-73
2023/10/31 09:29:10;;;;;;;5.65;1.10;;;11.80;99.90;;;;;;5050854;28;20498;-73
2023/10/31 09:31:36;;;;;;;5.43;1.20;;;11.90;99.90;;;;;;5048421;28;20409;-72
2023/10/31 09:34:03;;;;;;;7.55;1.33;;;12.10;99.90;;;;;;5040975;28;20038;-72
2023/10/31 09:36:32;;;;;;;5.28;1.00;;;11.90;99.90;;;;;;5046530;28;20037;-73
2023/10/31 09:38:57;;;;;;;6.82;1.33;;;12.00;99.90;;;;;;5048480;28;20045;-72
2023/10/31 09:41:23;;;;;;;2.15;0.68;;;12.00;99.90;;;;;;5058460;28;20162;-74
2023/10/31 09:43:50;;;;;;;4.68;0.80;;;12.00;99.90;;;;;;5052872;28;20489;-73
2023/10/31 09:46:16;;;;;;;5.47;0.80;;;12.00;99.90;;;;;;5062612;28;20033;-73
2023/10/31 09:48:43;;;;;;;2.03;0.63;;;12.00;99.90;;;;;;5052472;28;20044;-73
2023/10/31 09:51:10;;;;;;;4.07;0.80;;;12.00;99.90;;;;;;5047904;28;20099;-73
2023/10/31 09:53:38;;;;;;;6.82;0.68;;;12.00;99.90;;;;;;5058128;28;20048;-73
2023/10/31 09:56:06;;;;;;;6.18;0.68;;;12.00;99.90;;;;;;5045253;28;20037;-73
2023/10/31 09:58:31;;;;;;;5.32;0.80;;;12.00;99.90;;;;;;5038779;28;20044;-73
2023/10/31 10:00:58;;;;;;;4.90;0.90;;;12.10;99.90;;;;;;5050550;28;20060;-73
2023/10/31 10:03:24;;;;;;;9.40;1.33;;;12.00;99.90;;;;;;5046122;28;20116;-74
2023/10/31 10:05:50;;;;;;;2.00;0.60;;;12.10;99.90;;;;;;5042233;28;20128;-74
2023/10/31 10:08:16;;;;;;;3.92;0.70;;;12.10;99.90;;;;;;5054713;28;20038;-76
2023/10/31 10:10:42;;;;;;;5.47;0.90;;;12.10;99.90;;;;;;5059123;28;20054;-73
2023/10/31 10:13:08;;;;;;;4.05;0.90;;;12.20;99.90;;;;;;5052812;28;20123;-74
2023/10/31 10:15:54;;;;;;;3.03;0.60;;;12.50;99.90;;;;;;5058024;28;20047;-73
2023/10/31 10:18:34;;;;;;;1.80;0.68;;;12.30;99.90;;;;;;5045465;28;20088;-74
2023/10/31 10:21:04;;;;;;;1.52;0.50;;;12.40;99.90;;;;;;5030666;28;20055;-73
2023/10/31 10:23:31;;;;;;;5.05;0.68;;;12.40;99.90;;;;;;5039187;28;20041;-75
2023/10/31 10:25:58;;;;;;;4.07;0.70;;;12.50;99.90;;;;;;5047932;28;20037;-76
2023/10/31 10:28:24;;;;;;;2.75;0.60;;;12.40;99.90;;;;;;5038599;28;20063;-73
2023/10/31 10:30:51;;;;;;;1.77;0.55;;;12.40;99.90;;;;;;5039162;28;20106;-73
2023/10/31 10:33:17;;;;;;;1.25;0.50;;;12.40;99.90;;;;;;5052439;28;20054;-74
2023/10/31 10:35:43;;;;;;;5.18;0.55;;;12.40;99.90;;;;;;5059890;28;20116;-74
2023/10/31 10:38:17;;;;;;;1.88;0.30;;;12.40;99.90;;;;;;5038809;28;20071;-74
2023/10/31 10:40:47;;;;;;;2.17;0.75;;;12.40;99.90;;;;;;5042219;28;20076;-74
2023/10/31 10:43:26;;;;;;;4.57;0.57;;;12.40;99.90;;;;;;5047609;28;20041;-73
2023/10/31 10:45:57;;;;;;;1.77;0.55;;;12.30;99.90;;;;;;5055984;28;20041;-73
2023/10/31 10:48:24;;;;;;;3.47;0.55;;;12.30;99.90;;;;;;5049794;28;20045;-73
2023/10/31 10:51:10;;;;;;;2.85;0.32;;;12.20;99.90;;;;;;5044305;28;20089;-73
2023/10/31 10:54:09;;;;;;;2.38;0.50;;;12.20;99.90;;;;;;5047132;28;20131;-73
2023/10/31 10:56:39;;;;;;;4.50;0.60;;;12.20;99.90;;;;;;5048612;28;20289;-73
2023/10/31 10:59:15;;;;;;;3.80;0.65;;;12.20;99.90;;;;;;5045679;28;20083;-73
2023/10/31 11:01:42;;;;;;;3.05;0.60;;;12.20;99.90;;;;;;5052400;28;20102;-73
2023/10/31 11:04:09;;;;;;;3.03;0.43;;;12.10;99.90;;;;;;5039450;28;20045;-74
2023/10/31 11:06:38;;;;;;;3.50;0.52;;;12.10;99.90;;;;;;5031582;28;20092;-73
2023/10/31 11:09:06;;;;;;;3.03;0.57;;;12.10;99.90;;;;;;5047108;28;20136;-74
2023/10/31 11:11:32;;;;;;;3.33;0.80;;;12.20;99.90;;;;;;5042982;28;20032;-73
2023/10/31 11:14:01;;;;;;;6.68;0.95;;;12.20;99.90;;;;;;5058709;28;20036;-73
2023/10/31 11:16:37;;;;;;;1.50;0.60;;;12.30;99.90;;;;;;5049449;28;20497;-73
2023/10/31 11:19:03;;;;;;;2.97;0.60;;;12.40;99.90;;;;;;5045182;28;20045;-73
2023/10/31 11:21:29;;;;;;;3.47;0.45;;;12.40;99.90;;;;;;5042537;28;20397;-73
2023/10/31 11:24:00;;;;;;;2.47;0.50;;;12.50;99.90;;;;;;5050465;28;20447;-72
2023/10/31 11:26:26;;;;;;;1.38;0.47;;;12.50;99.90;;;;;;5035567;28;20118;-72
2023/10/31 11:28:52;;;;;;;5.30;0.98;;;12.70;99.90;;;;;;5050741;28;20041;-72
2023/10/31 11:31:17;;;;;;;2.90;0.47;;;12.50;99.90;;;;;;5046176;28;20036;-72
2023/10/31 11:33:46;;;;;;;3.53;0.63;;;12.60;99.90;;;;;;5051605;28;20090;-72
2023/10/31 11:36:11;;;;;;;2.13;0.47;;;12.60;99.90;;;;;;5038168;28;20025;-72
2023/10/31 11:38:38;;;;;;;4.32;0.45;;;12.60;99.90;;;;;;5048621;28;20045;-73
2023/10/31 11:41:05;;;;;;;4.32;0.43;;;12.70;99.90;;;;;;5035453;28;20048;-73
2023/10/31 11:43:39;;;;;;;2.60;0.57;;;12.70;99.90;;;;;;5048523;28;20048;-72
2023/10/31 11:46:05;;;;;;;1.58;0.20;;;12.60;99.90;;;;;;5047050;28;20045;-74
2023/10/31 11:48:50;;;;;;;2.42;0.50;;;12.60;99.90;;;;;;5055656;28;20114;-74
2023/10/31 11:51:15;;;;;;;0.63;0.30;;;12.70;99.90;;;;;;5055984;28;20545;-74
2023/10/31 11:53:43;;;;;;;1.75;0.43;;;12.80;99.90;;;;;;5047442;28;20123;-74
2023/10/31 11:56:11;;;;;;;2.97;0.60;;;12.90;99.90;;;;;;5051745;28;20108;-75
2023/10/31 11:58:37;;;;;;;4.28;0.90;;;13.00;99.90;;;;;;5048828;28;20140;-75
2023/10/31 12:01:04;;;;;;;1.98;0.60;;;13.00;99.90;;;;;;5052476;28;20104;-75
2023/10/31 12:03:38;;;;;;;3.10;0.57;;;13.00;99.90;;;;;;5035027;28;20060;-75
2023/10/31 12:06:04;;;;;;;1.25;0.30;;;13.10;99.90;;;;;;5047880;28;20119;-77
2023/10/31 12:08:36;;;;;;;2.22;0.40;;;13.20;99.90;;;;;;5032893;28;20051;-75
2023/10/31 12:11:21;;;;;;;2.92;0.40;;;13.30;99.90;;;;;;5048682;28;20037;-75
2023/10/31 12:14:01;;;;;;;1.42;0.22;;;13.40;99.90;;;;;;5043293;28;20040;-74
2023/10/31 12:16:31;;;;;;;0.93;0.20;;;13.40;99.90;;;;;;5043962;28;20043;-74
2023/10/31 12:18:58;;;;;;;1.60;0.20;;;13.40;99.90;;;;;;5043676;28;20128;-74
2023/10/31 12:21:42;;;;;;;1.02;0.30;;;13.50;99.90;;;;;;5043071;28;20029;-74
2023/10/31 12:24:10;;;;;;;0.85;0.20;;;13.50;99.90;;;;;;5051643;28;20044;-74
2023/10/31 12:26:35;;;;;;;0.90;0.30;;;13.60;99.90;;;;;;5051159;28;20044;-74
2023/10/31 12:29:12;;;;;;;1.15;0.30;;;13.60;99.90;;;;;;5061905;28;20037;-74
2023/10/31 12:31:52;;;;;;;3.70;1.00;;;13.70;99.90;;;;;;5065153;28;20108;-74
2023/10/31 12:34:20;;;;;;;3.30;0.55;;;13.70;99.90;;;;;;5062534;28;20090;-74
2023/10/31 12:36:47;;;;;;;1.13;0.30;;;13.90;99.90;;;;;;5066472;28;20520;-74
2023/10/31 12:39:13;;;;;;;1.27;0.20;;;14.00;99.90;;;;;;5054786;28;20090;-74
2023/10/31 12:41:41;;;;;;;3.63;0.30;;;14.10;99.90;;;;;;5059179;28;20055;-74
2023/10/31 12:44:10;;;;;;;1.75;0.43;;;14.20;99.90;;;;;;5062929;28;20045;-74